createdAt,value
2022-09-18T00:02:33.558Z,8.00
2022-09-18T00:07:38.169Z,8.00
2022-09-18T00:12:41.267Z,8.00
2022-09-18T00:17:44.384Z,8.00
2022-09-18T00:22:48.826Z,8.10
2022-09-18T00:27:51.898Z,8.10
2022-09-18T00:32:55.163Z,8.10
2022-09-18T00:37:59.650Z,8.10
2022-09-18T00:43:18.628Z,8.10
2022-09-18T00:48:22.439Z,8.10
2022-09-18T00:53:26.992Z,8.10
2022-09-18T00:58:30.198Z,8.10
2022-09-18T01:03:33.339Z,8.20
2022-09-18T01:08:49.846Z,8.20
2022-09-18T01:14:01.746Z,8.20
2022-09-18T01:19:15.726Z,8.20
2022-09-18T01:24:56.801Z,8.20
2022-09-18T01:30:05.850Z,8.20
2022-09-18T01:35:37.178Z,8.20
2022-09-18T01:40:41.879Z,8.20
2022-09-18T01:45:48.812Z,8.20
2022-09-18T01:50:56.617Z,8.20
2022-09-18T01:56:06.786Z,8.10
2022-09-18T02:01:15.784Z,8.20
2022-09-18T02:06:22.840Z,8.20
2022-09-18T02:11:26.199Z,8.20
2022-09-18T02:16:35.659Z,8.20
2022-09-18T02:21:40.210Z,8.20
2022-09-18T02:26:45.323Z,8.20
2022-09-18T02:31:53.289Z,8.20
2022-09-18T02:37:14.271Z,8.20
2022-09-18T02:42:30.354Z,8.20
2022-09-18T02:47:51.311Z,8.20
2022-09-18T02:53:00.612Z,8.10
2022-09-18T02:58:08.024Z,8.10
2022-09-18T03:03:19.120Z,8.10
2022-09-18T03:08:22.869Z,8.10
2022-09-18T03:13:26.080Z,8.20
2022-09-18T03:18:30.542Z,8.20
2022-09-18T03:23:33.749Z,8.20
2022-09-18T03:28:37.021Z,8.20
2022-09-18T03:33:41.576Z,8.20
2022-09-18T03:38:44.767Z,8.20
2022-09-18T03:43:47.868Z,8.20
2022-09-18T03:48:53.026Z,8.20
2022-09-18T03:53:56.139Z,8.20
2022-09-18T03:58:59.269Z,8.20
2022-09-18T04:04:04.408Z,8.30
2022-09-18T04:09:07.707Z,8.20
2022-09-18T04:14:11.700Z,8.20
2022-09-18T04:19:16.347Z,8.30
2022-09-18T04:24:19.480Z,8.30
2022-09-18T04:29:22.672Z,8.20
2022-09-18T04:34:27.185Z,8.30
2022-09-18T04:39:30.374Z,8.30
2022-09-18T04:44:33.463Z,8.20
2022-09-18T04:49:37.987Z,8.30
2022-09-18T04:54:41.199Z,8.30
2022-09-18T04:59:44.313Z,8.30
2022-09-18T05:04:48.927Z,8.40
2022-09-18T05:09:52.073Z,8.30
2022-09-18T05:14:55.157Z,8.30
2022-09-18T05:19:59.823Z,8.30
2022-09-18T05:25:03.263Z,8.30
2022-09-18T05:30:07.753Z,8.30
2022-09-18T05:35:12.241Z,8.30
2022-09-18T05:40:15.497Z,8.30
2022-09-18T05:45:18.741Z,8.40
2022-09-18T05:50:23.966Z,8.40
2022-09-18T05:55:31.596Z,8.40
2022-09-18T06:00:36.774Z,8.50
2022-09-18T06:05:42.259Z,8.50
2022-09-18T06:10:45.441Z,8.60
2022-09-18T06:15:50.189Z,8.60
2022-09-18T06:20:56.516Z,8.60
2022-09-18T06:26:00.607Z,8.70
2022-09-18T06:31:05.945Z,8.80
2022-09-18T06:36:14.578Z,9.10
2022-09-18T06:41:17.706Z,9.30
2022-09-18T06:46:20.875Z,9.80
2022-09-18T06:51:26.290Z,10.00
2022-09-18T06:56:29.449Z,10.30
2022-09-18T07:01:32.674Z,10.30
2022-09-18T07:06:37.383Z,10.40
2022-09-18T07:11:40.727Z,10.60
2022-09-18T07:16:43.868Z,10.70
2022-09-18T07:21:48.429Z,10.80
2022-09-18T07:26:51.612Z,10.80
2022-09-18T07:31:54.716Z,10.80
2022-09-18T07:36:59.150Z,11.00
2022-09-18T07:42:04.605Z,11.40
2022-09-18T07:47:12.468Z,11.30
2022-09-18T07:52:17.026Z,11.00
2022-09-18T07:57:20.487Z,10.80
2022-09-18T08:02:25.135Z,10.50
2022-09-18T08:07:29.818Z,10.50
2022-09-18T08:12:33.436Z,10.50
2022-09-18T08:17:36.589Z,10.50
2022-09-18T08:22:41.329Z,10.20
2022-09-18T08:27:45.095Z,10.20
2022-09-18T08:32:48.217Z,10.40
2022-09-18T08:37:52.767Z,10.80
2022-09-18T08:43:07.335Z,11.10
2022-09-18T08:48:17.129Z,12.50
2022-09-18T08:53:31.709Z,13.10
2022-09-18T08:58:39.075Z,13.40
2022-09-18T09:03:52.661Z,14.00
2022-09-18T09:09:24.360Z,15.30
2022-09-18T09:14:56.609Z,15.20
2022-09-18T09:20:10.713Z,13.90
2022-09-18T09:25:24.041Z,13.20
2022-09-18T09:30:35.911Z,13.50
2022-09-18T09:35:44.864Z,13.50
2022-09-18T09:40:52.542Z,13.80
2022-09-18T09:45:59.020Z,14.40
2022-09-18T09:51:11.814Z,14.90
2022-09-18T09:56:26.273Z,15.10
2022-09-18T10:01:36.114Z,15.50
2022-09-18T10:06:48.939Z,16.20
2022-09-18T10:11:59.505Z,15.90
2022-09-18T10:17:04.479Z,15.70
2022-09-18T10:22:14.491Z,15.40
2022-09-18T10:27:21.070Z,14.80
2022-09-18T10:32:35.894Z,14.90
2022-09-18T10:37:42.214Z,15.10
2022-09-18T10:42:55.004Z,15.10
2022-09-18T10:48:14.157Z,14.60
2022-09-18T10:53:25.375Z,14.20
2022-09-18T10:58:34.477Z,14.00
2022-09-18T11:03:46.564Z,14.30
2022-09-18T11:08:53.046Z,13.90
2022-09-18T11:14:01.224Z,14.30
2022-09-18T11:19:16.103Z,15.00
2022-09-18T11:24:24.666Z,15.30
2022-09-18T11:29:32.577Z,15.60
2022-09-18T11:34:39.601Z,15.60
2022-09-18T11:39:51.584Z,15.70
2022-09-18T11:45:18.918Z,15.50
2022-09-18T11:50:25.160Z,15.10
2022-09-18T11:55:33.756Z,15.00
2022-09-18T12:00:44.619Z,15.10
2022-09-18T12:05:55.814Z,15.70
2022-09-18T12:11:12.151Z,16.00
2022-09-18T12:16:21.897Z,15.80
2022-09-18T12:21:46.118Z,15.80
2022-09-18T12:27:04.198Z,15.50
2022-09-18T12:32:23.424Z,14.90
2022-09-18T12:37:38.342Z,14.60
2022-09-18T12:42:49.773Z,14.30
2022-09-18T12:48:09.841Z,14.10
2022-09-18T12:53:27.498Z,13.90
2022-09-18T12:58:53.893Z,13.60
2022-09-18T13:04:05.864Z,13.50
2022-09-18T13:09:25.135Z,13.70
2022-09-18T13:14:34.383Z,13.70
2022-09-18T13:19:46.148Z,13.80
2022-09-18T13:24:53.644Z,14.30
2022-09-18T13:29:59.192Z,14.70
2022-09-18T13:35:06.958Z,15.10
2022-09-18T13:40:31.123Z,15.20
2022-09-18T13:45:43.591Z,14.80
2022-09-18T13:50:55.812Z,14.30
2022-09-18T13:55:59.218Z,14.20
2022-09-18T14:01:04.499Z,14.40
2022-09-18T14:06:46.784Z,14.50
2022-09-18T14:11:50.343Z,14.40
2022-09-18T14:16:56.314Z,14.30
2022-09-18T14:22:04.003Z,14.40
2022-09-18T14:27:43.167Z,14.30
2022-09-18T14:33:11.821Z,14.10
2022-09-18T14:38:27.752Z,14.10
2022-09-18T14:43:30.994Z,14.00
2022-09-18T14:48:38.926Z,13.90
2022-09-18T14:53:46.354Z,13.70
2022-09-18T14:58:50.649Z,13.80
2022-09-18T15:03:56.577Z,13.90
2022-09-18T15:09:02.390Z,13.90
2022-09-18T15:14:05.585Z,13.70
2022-09-18T15:19:18.511Z,13.60
2022-09-18T15:24:23.114Z,13.50
2022-09-18T15:29:31.093Z,13.30
2022-09-18T15:34:41.083Z,13.20
2022-09-18T15:39:52.736Z,13.20
2022-09-18T15:45:18.313Z,13.10
2022-09-18T15:50:39.540Z,13.00
2022-09-18T15:55:56.785Z,13.00
2022-09-18T16:01:02.456Z,12.80
2022-09-18T16:06:08.665Z,12.80
2022-09-18T16:11:45.194Z,12.80
2022-09-18T16:16:48.392Z,12.70
2022-09-18T16:21:51.900Z,12.50
2022-09-18T16:27:05.447Z,12.40
2022-09-18T16:32:11.808Z,12.30
2022-09-18T16:37:17.128Z,12.30
2022-09-18T16:42:21.872Z,12.20
2022-09-18T16:47:25.742Z,12.20
2022-09-18T16:52:33.744Z,12.00
2022-09-18T16:57:39.702Z,12.00
2022-09-18T17:02:43.050Z,11.90
2022-09-18T17:07:46.267Z,11.80
2022-09-18T17:12:51.235Z,11.70
2022-09-18T17:17:54.821Z,11.70
2022-09-18T17:22:58.239Z,11.60
2022-09-18T17:28:03.293Z,11.60
2022-09-18T17:33:06.473Z,11.50
2022-09-18T17:38:10.213Z,11.50
2022-09-18T17:43:16.681Z,11.50
2022-09-18T17:48:19.872Z,11.50
2022-09-18T17:53:23.890Z,11.40
2022-09-18T17:58:29.016Z,11.40
2022-09-18T18:03:37.410Z,11.30
2022-09-18T18:08:40.707Z,11.40
2022-09-18T18:13:46.859Z,11.40
2022-09-18T18:18:50.468Z,11.40
2022-09-18T18:23:57.042Z,11.40
2022-09-18T18:29:02.284Z,11.40
2022-09-18T18:34:05.877Z,11.50
2022-09-18T18:39:12.576Z,11.40
2022-09-18T18:44:17.218Z,11.40
2022-09-18T18:49:21.421Z,11.40
2022-09-18T18:54:24.772Z,11.40
2022-09-18T18:59:29.743Z,11.30
2022-09-18T19:04:36.342Z,11.30
2022-09-18T19:09:39.640Z,11.30
2022-09-18T19:14:44.335Z,11.40
2022-09-18T19:19:48.674Z,11.40
2022-09-18T19:24:51.904Z,11.30
2022-09-18T19:29:56.489Z,11.30
2022-09-18T19:34:59.691Z,11.30
2022-09-18T19:40:03.359Z,11.20
2022-09-18T19:45:12.473Z,11.20
2022-09-18T19:50:22.988Z,11.20
2022-09-18T19:55:26.439Z,11.20
2022-09-18T20:00:31.410Z,11.30
2022-09-18T20:05:37.539Z,11.20
2022-09-18T20:10:41.835Z,11.20
2022-09-18T20:15:46.584Z,11.10
2022-09-18T20:20:51.531Z,11.00
2022-09-18T20:25:58.280Z,11.00
2022-09-18T20:31:05.008Z,11.00
2022-09-18T20:36:11.494Z,11.00
2022-09-18T20:41:16.133Z,11.00
2022-09-18T20:46:21.028Z,11.00
2022-09-18T20:51:26.654Z,11.10
2022-09-18T20:56:33.072Z,11.10
2022-09-18T21:01:40.345Z,11.00
2022-09-18T21:06:45.155Z,10.90
2022-09-18T21:11:48.444Z,10.80
2022-09-18T21:16:52.934Z,10.70
2022-09-18T21:21:56.098Z,10.60
2022-09-18T21:26:59.707Z,10.60
2022-09-18T21:32:04.302Z,10.60
2022-09-18T21:37:08.855Z,10.50
2022-09-18T21:42:12.336Z,10.50
2022-09-18T21:47:17.136Z,10.50
2022-09-18T21:52:20.167Z,10.50
2022-09-18T21:57:27.320Z,10.50
2022-09-18T22:02:31.765Z,10.50
2022-09-18T22:07:35.146Z,10.50
2022-09-18T22:12:39.040Z,10.50
2022-09-18T22:17:43.973Z,10.60
2022-09-18T22:22:47.296Z,10.60
2022-09-18T22:27:51.697Z,10.50
2022-09-18T22:32:56.615Z,10.60
2022-09-18T22:37:59.943Z,10.60
2022-09-18T22:43:03.021Z,10.60
2022-09-18T22:48:07.570Z,10.60
2022-09-18T22:53:10.742Z,10.40
2022-09-18T22:58:15.059Z,10.20
2022-09-18T23:03:21.621Z,10.10
2022-09-18T23:08:25.816Z,10.00
2022-09-18T23:13:29.117Z,9.80
2022-09-18T23:18:34.397Z,9.70
2022-09-18T23:23:39.599Z,9.70
2022-09-18T23:28:44.811Z,9.60
2022-09-18T23:33:51.168Z,9.70
2022-09-18T23:38:55.844Z,9.60
2022-09-18T23:43:59.021Z,9.60
2022-09-18T23:49:03.815Z,9.60
2022-09-18T23:54:08.738Z,9.60
2022-09-18T23:59:13.498Z,9.60
